Time;durP1;ratioP1;P1;durP2;ratioP2;P2;SDS_P1;SDS_P2;PMS_P1;PMS_P2;Temp;Humidity;BMP_temperature;BMP_pressure;BME280_temperature;BME280_humidity;BME280_pressure;Samples;Min_cycle;Max_cycle;Signal;HPM_P1;HPM_P2
2023/01/10 00:01:56;;;;;;;1.27;0.90;;;3.60;99.90;;;;;;10337159;23;20022;-81
2023/01/10 00:05:56;;;;;;;1.77;1.20;;;3.50;99.90;;;;;;10338981;22;20432;-81
2023/01/10 00:09:57;;;;;;;1.10;0.80;;;3.60;99.90;;;;;;10341049;23;20004;-81
2023/01/10 00:13:57;;;;;;;2.67;0.88;;;3.50;99.90;;;;;;10339637;22;20386;-80
2023/01/10 00:17:58;;;;;;;2.72;0.93;;;3.50;99.90;;;;;;10341205;23;20004;-80
2023/01/10 00:22:08;;;;;;;0.80;0.70;;;3.40;99.90;;;;;;10342364;23;20000;-80
2023/01/10 00:26:09;;;;;;;1.33;0.80;;;3.40;99.90;;;;;;10341690;22;20004;-80
2023/01/10 00:30:13;;;;;;;2.45;0.90;;;3.50;99.90;;;;;;10342917;23;20004;-80
2023/01/10 00:34:13;;;;;;;0.57;0.45;;;3.50;99.90;;;;;;10342699;22;20055;-80
2023/01/10 00:38:14;;;;;;;2.08;0.75;;;3.60;99.90;;;;;;10343001;23;20466;-80
2023/01/10 00:46:34;;;;;;;0.90;0.73;;;3.40;99.90;;;;;;10344447;22;20070;-80
2023/01/10 00:50:34;;;;;;;2.28;0.90;;;3.20;99.90;;;;;;10343356;23;20427;-80
2023/01/10 00:54:35;;;;;;;1.50;1.10;;;3.30;99.90;;;;;;10342264;22;20004;-80
2023/01/10 00:58:35;;;;;;;1.40;0.88;;;3.30;99.90;;;;;;10343310;23;19996;-80
2023/01/10 01:02:36;;;;;;;0.85;0.65;;;3.40;99.90;;;;;;10344155;23;20004;-80
2023/01/10 01:06:36;;;;;;;1.33;0.68;;;3.50;99.90;;;;;;10343162;22;20340;-80
2023/01/10 01:10:37;;;;;;;1.02;0.80;;;3.40;99.90;;;;;;10343830;23;20011;-80
2023/01/10 01:14:37;;;;;;;1.30;0.80;;;3.30;99.90;;;;;;10343313;22;20004;-80
2023/01/10 01:18:38;;;;;;;0.65;0.50;;;3.20;99.90;;;;;;10342980;23;20008;-80
2023/01/10 01:22:39;;;;;;;0.95;0.60;;;3.40;99.90;;;;;;10345813;23;20012;-80
2023/01/10 01:26:41;;;;;;;1.25;0.70;;;3.50;99.90;;;;;;10344228;22;20011;-80
2023/01/10 01:30:42;;;;;;;1.15;0.90;;;3.50;99.90;;;;;;10344434;23;20004;-80
2023/01/10 01:34:42;;;;;;;1.33;1.05;;;3.40;99.90;;;;;;10344266;22;20012;-80
2023/01/10 01:38:43;;;;;;;2.88;1.05;;;3.40;99.90;;;;;;10344670;23;20015;-80
2023/01/10 01:42:44;;;;;;;1.85;1.02;;;3.30;99.90;;;;;;10344473;23;20000;-80
2023/01/10 01:47:12;;;;;;;0.50;0.50;;;3.30;99.90;;;;;;10345743;22;20461;-80
2023/01/10 01:51:19;;;;;;;1.60;0.90;;;3.20;99.90;;;;;;10345365;23;20087;-80
2023/01/10 01:55:22;;;;;;;0.98;0.75;;;3.00;99.90;;;;;;10369446;22;20016;-79
2023/01/10 01:59:52;;;;;;;1.58;0.98;;;3.00;99.90;;;;;;10341725;23;20040;-80
2023/01/10 02:03:59;;;;;;;2.17;0.77;;;3.00;99.90;;;;;;10334502;22;20015;-80
2023/01/10 02:08:01;;;;;;;1.00;0.90;;;3.00;99.90;;;;;;10341381;22;20699;-80
2023/01/10 02:12:02;;;;;;;0.85;0.70;;;3.20;99.90;;;;;;10339683;23;20032;-80
2023/01/10 02:16:03;;;;;;;1.17;0.88;;;3.20;99.90;;;;;;10355679;22;20073;-78
2023/01/10 02:20:12;;;;;;;3.28;1.27;;;3.10;99.90;;;;;;10379627;22;20000;-79
2023/01/10 02:24:36;;;;;;;1.10;0.80;;;3.30;99.90;;;;;;10375885;22;20008;-78
2023/01/10 02:29:09;;;;;;;0.70;0.55;;;3.30;99.90;;;;;;10331563;23;20020;-79
2023/01/10 02:33:21;;;;;;;2.20;1.00;;;3.40;99.90;;;;;;10331794;23;20019;-78
2023/01/10 02:37:47;;;;;;;1.63;0.82;;;3.40;99.90;;;;;;10331607;22;20000;-79
2023/01/10 02:41:59;;;;;;;1.33;0.80;;;3.50;99.90;;;;;;10331583;23;20038;-79
2023/01/10 02:46:06;;;;;;;1.70;0.93;;;3.60;99.90;;;;;;10331372;22;20035;-77
2023/01/10 02:50:28;;;;;;;1.00;0.80;;;3.60;99.90;;;;;;10330979;23;20059;-77
2023/01/10 02:54:29;;;;;;;0.98;0.80;;;3.60;99.90;;;;;;10332639;22;20003;-78
2023/01/10 02:58:51;;;;;;;0.80;0.60;;;3.50;99.90;;;;;;10331502;23;20000;-78
2023/01/10 03:03:21;;;;;;;0.95;0.70;;;3.40;99.90;;;;;;10332279;23;20003;-78
2023/01/10 03:07:49;;;;;;;0.57;0.40;;;3.40;99.90;;;;;;10330500;22;20008;-79
2023/01/10 03:11:55;;;;;;;0.93;0.70;;;3.30;99.90;;;;;;10333226;22;20367;-79
2023/01/10 03:15:58;;;;;;;0.70;0.52;;;3.30;99.90;;;;;;10331111;22;20008;-79
2023/01/10 03:20:03;;;;;;;1.55;0.90;;;3.40;99.90;;;;;;10334021;23;20004;-80
2023/01/10 03:24:17;;;;;;;0.95;0.65;;;3.30;99.90;;;;;;10334623;22;20438;-79
2023/01/10 03:28:42;;;;;;;3.88;1.00;;;3.30;99.90;;;;;;10335350;23;20004;-79
2023/01/10 03:32:43;;;;;;;0.30;0.17;;;3.50;99.90;;;;;;10334619;23;20016;-81
2023/01/10 03:36:54;;;;;;;1.08;0.40;;;3.60;99.90;;;;;;10335195;22;20011;-81
2023/01/10 03:41:08;;;;;;;2.67;0.80;;;3.50;99.90;;;;;;10336837;22;20034;-79
2023/01/10 03:45:14;;;;;;;1.58;0.60;;;3.50;99.90;;;;;;10334546;22;20012;-78
2023/01/10 03:49:18;;;;;;;0.93;0.60;;;3.50;99.90;;;;;;10335322;23;20084;-79
2023/01/10 03:53:18;;;;;;;1.08;0.52;;;3.40;99.90;;;;;;10334794;23;20036;-79
2023/01/10 03:57:23;;;;;;;0.82;0.43;;;3.60;99.90;;;;;;10334187;22;20004;-79
2023/01/10 04:01:24;;;;;;;0.40;0.28;;;3.50;99.90;;;;;;10333350;23;20004;-80
2023/01/10 04:05:25;;;;;;;0.30;0.30;;;3.40;99.90;;;;;;10334237;22;20008;-79
2023/01/10 04:09:25;;;;;;;0.32;0.30;;;3.40;99.90;;;;;;10336635;22;20031;-79
2023/01/10 04:13:26;;;;;;;1.88;0.68;;;3.40;99.90;;;;;;10334523;23;20004;-79
2023/01/10 04:17:27;;;;;;;0.95;0.17;;;3.40;99.90;;;;;;10336664;22;20015;-80
2023/01/10 04:21:27;;;;;;;0.10;0.10;;;3.40;99.90;;;;;;10337078;23;20463;-79
2023/01/10 04:25:28;;;;;;;0.28;0.17;;;3.30;99.90;;;;;;10333788;22;20012;-78
2023/01/10 04:29:28;;;;;;;0.43;0.30;;;3.50;99.90;;;;;;10334288;23;20004;-79
2023/01/10 04:33:29;;;;;;;0.28;0.20;;;3.40;99.90;;;;;;10334106;23;20075;-79
2023/01/10 04:37:29;;;;;;;0.45;0.30;;;3.40;99.90;;;;;;10334212;22;20004;-79
2023/01/10 04:41:30;;;;;;;0.30;0.30;;;3.40;99.90;;;;;;10334549;23;20439;-80
2023/01/10 04:45:34;;;;;;;0.20;0.20;;;3.40;99.90;;;;;;10332655;22;20083;-80
2023/01/10 04:49:34;;;;;;;0.70;0.20;;;3.40;99.90;;;;;;10337340;23;20003;-82
2023/01/10 04:53:35;;;;;;;0.50;0.20;;;3.40;99.90;;;;;;10332996;23;20012;-79
2023/01/10 04:57:35;;;;;;;0.00;0.00;;;3.40;99.90;;;;;;10333375;22;20000;-79
2023/01/10 05:01:37;;;;;;;0.13;0.10;;;3.30;99.90;;;;;;10331247;23;20078;-80
2023/01/10 05:05:38;;;;;;;0.20;0.20;;;3.20;99.90;;;;;;10331348;22;20012;-80
2023/01/10 05:09:38;;;;;;;0.20;0.10;;;3.20;99.90;;;;;;10333875;23;20094;-80
2023/01/10 05:13:39;;;;;;;0.10;0.05;;;3.20;99.90;;;;;;10331120;23;20075;-79
2023/01/10 05:17:40;;;;;;;1.05;0.13;;;3.20;99.90;;;;;;10331229;22;20315;-79
2023/01/10 05:21:40;;;;;;;0.10;0.08;;;3.20;99.90;;;;;;10330309;23;20462;-79
2023/01/10 05:25:41;;;;;;;0.10;0.10;;;3.20;99.90;;;;;;10331066;22;20086;-79
2023/01/10 05:29:42;;;;;;;0.10;0.10;;;3.20;99.90;;;;;;10332565;23;20343;-80
2023/01/10 05:33:44;;;;;;;0.40;0.20;;;3.20;99.90;;;;;;10330930;23;20040;-79
2023/01/10 05:37:45;;;;;;;0.10;0.10;;;3.20;99.90;;;;;;10330957;22;20083;-79
2023/01/10 05:41:45;;;;;;;0.80;0.30;;;3.20;99.90;;;;;;10329732;23;20004;-81
2023/01/10 05:45:46;;;;;;;0.20;0.20;;;3.20;99.90;;;;;;10329663;22;20011;-80
2023/01/10 05:49:46;;;;;;;0.20;0.15;;;3.10;99.90;;;;;;10331507;23;20004;-81
2023/01/10 05:53:47;;;;;;;0.40;0.20;;;3.20;99.90;;;;;;10331906;22;20004;-81
2023/01/10 05:57:47;;;;;;;0.10;0.10;;;3.10;99.90;;;;;;10328827;23;20209;-80
2023/01/10 06:01:48;;;;;;;0.25;0.20;;;3.20;99.90;;;;;;10329560;23;20055;-80
2023/01/10 06:05:48;;;;;;;0.22;0.10;;;3.20;99.90;;;;;;10329684;22;20011;-79
2023/01/10 06:09:50;;;;;;;4.82;0.43;;;3.20;99.90;;;;;;10331415;23;20000;-79
2023/01/10 06:13:54;;;;;;;0.17;0.15;;;3.20;99.90;;;;;;10330572;22;20001;-79
2023/01/10 06:17:55;;;;;;;0.52;0.35;;;3.20;99.90;;;;;;10329725;23;20342;-79
2023/01/10 06:21:55;;;;;;;0.70;0.10;;;3.20;99.90;;;;;;10329914;23;20000;-79
2023/01/10 06:25:56;;;;;;;0.50;0.20;;;3.10;99.90;;;;;;10329003;22;20009;-79
2023/01/10 06:29:58;;;;;;;0.52;0.40;;;3.20;99.90;;;;;;10331706;23;20048;-79
2023/01/10 06:33:58;;;;;;;3.67;0.43;;;3.30;99.90;;;;;;10329635;22;20008;-79
2023/01/10 06:37:59;;;;;;;1.65;0.60;;;3.30;99.90;;;;;;10330006;23;19996;-79
2023/01/10 06:42:00;;;;;;;1.00;0.40;;;3.20;99.90;;;;;;10331696;22;20046;-80
2023/01/10 06:46:00;;;;;;;1.27;0.60;;;3.20;99.90;;;;;;10329565;22;20018;-79
2023/01/10 06:50:01;;;;;;;1.45;0.50;;;3.20;99.90;;;;;;10330344;23;20015;-79
2023/01/10 06:54:02;;;;;;;1.80;0.80;;;3.10;99.90;;;;;;10329905;22;20329;-80
2023/01/10 06:58:03;;;;;;;2.30;0.60;;;3.10;99.90;;;;;;10332707;23;20346;-79
2023/01/10 07:02:04;;;;;;;3.15;0.90;;;3.20;99.90;;;;;;10332848;23;20008;-80
2023/01/10 07:06:08;;;;;;;10.00;0.95;;;3.10;99.90;;;;;;10332835;22;20008;-79
2023/01/10 07:10:10;;;;;;;1.58;0.55;;;3.30;99.90;;;;;;10334401;22;20000;-78
2023/01/10 07:14:10;;;;;;;2.75;0.65;;;3.20;99.90;;;;;;10332319;22;20393;-80
2023/01/10 07:18:11;;;;;;;0.73;0.50;;;3.10;99.90;;;;;;10332543;23;20000;-79
2023/01/10 07:22:11;;;;;;;3.33;0.80;;;2.90;99.90;;;;;;10332340;23;20091;-79
2023/01/10 07:26:16;;;;;;;1.88;0.70;;;2.90;99.90;;;;;;10333814;22;20004;-79
2023/01/10 07:30:17;;;;;;;1.38;0.55;;;2.90;99.90;;;;;;10333090;23;20410;-79
2023/01/10 07:34:17;;;;;;;4.10;0.80;;;2.90;99.90;;;;;;10332840;22;20004;-79
2023/01/10 07:38:18;;;;;;;3.50;0.95;;;2.90;99.90;;;;;;10332380;23;20011;-80
2023/01/10 07:42:18;;;;;;;1.58;0.47;;;3.00;99.90;;;;;;10334342;23;20380;-80
2023/01/10 07:46:19;;;;;;;1.23;0.68;;;2.80;99.90;;;;;;10332922;22;20047;-79
2023/01/10 07:50:19;;;;;;;2.13;0.77;;;2.80;99.90;;;;;;10335952;23;20335;-78
2023/01/10 07:54:20;;;;;;;1.52;0.57;;;2.80;99.90;;;;;;10332916;22;20000;-79
2023/01/10 07:58:20;;;;;;;0.93;0.40;;;3.00;99.90;;;;;;10334325;23;20035;-79
2023/01/10 08:02:21;;;;;;;5.55;0.80;;;3.10;99.90;;;;;;10335832;23;20430;-80
2023/01/10 08:06:21;;;;;;;1.58;0.73;;;3.00;99.90;;;;;;10335892;22;20004;-79
2023/01/10 08:10:22;;;;;;;1.83;0.38;;;3.10;99.90;;;;;;10334634;23;20196;-79
2023/01/10 08:14:22;;;;;;;3.00;1.23;;;3.20;99.90;;;;;;10333730;22;20095;-80
2023/01/10 08:18:24;;;;;;;3.85;1.00;;;3.20;99.90;;;;;;10339750;23;20342;-80
2023/01/10 08:22:25;;;;;;;2.88;0.90;;;3.20;99.90;;;;;;10339058;22;20000;-81
2023/01/10 08:26:25;;;;;;;4.78;1.10;;;3.20;99.90;;;;;;10336957;22;20004;-80
2023/01/10 08:30:26;;;;;;;4.18;2.45;;;3.30;99.90;;;;;;10338727;23;20004;-80
2023/01/10 08:34:26;;;;;;;3.45;1.77;;;3.30;99.90;;;;;;10338316;22;20346;-80
2023/01/10 08:38:28;;;;;;;6.40;2.58;;;3.40;99.90;;;;;;10335869;23;20008;-79
2023/01/10 08:42:28;;;;;;;4.97;3.03;;;3.60;99.90;;;;;;10335854;23;20004;-80
2023/01/10 08:46:29;;;;;;;19.55;6.78;;;3.70;99.90;;;;;;10339341;22;20004;-79
2023/01/10 08:50:30;;;;;;;2.75;1.30;;;3.70;99.90;;;;;;10336821;23;20087;-80
2023/01/10 08:54:31;;;;;;;1.60;0.88;;;3.80;99.90;;;;;;10336653;22;20446;-80
2023/01/10 08:58:32;;;;;;;3.88;1.15;;;3.80;99.90;;;;;;10336780;23;20031;-79
2023/01/10 09:02:33;;;;;;;3.83;0.77;;;3.90;99.90;;;;;;10336280;23;20091;-79
2023/01/10 09:06:33;;;;;;;1.65;0.82;;;4.10;99.90;;;;;;10334424;22;20012;-80
2023/01/10 09:10:34;;;;;;;1.23;0.70;;;4.10;99.90;;;;;;10334623;23;20015;-80
2023/01/10 09:14:34;;;;;;;1.70;0.93;;;4.20;99.90;;;;;;10333975;22;20016;-78
2023/01/10 09:18:35;;;;;;;2.83;0.80;;;4.10;99.90;;;;;;10335086;23;20007;-80
2023/01/10 09:22:39;;;;;;;3.38;1.38;;;4.20;99.90;;;;;;10333883;23;20008;-79
2023/01/10 09:26:40;;;;;;;1.58;0.90;;;4.20;99.90;;;;;;10333399;22;20055;-78
2023/01/10 09:30:41;;;;;;;3.38;1.10;;;4.30;99.90;;;;;;10334525;23;20031;-80
2023/01/10 09:34:41;;;;;;;1.95;0.82;;;4.10;99.90;;;;;;10332954;22;20008;-80
2023/01/10 09:38:42;;;;;;;4.03;0.93;;;4.20;99.90;;;;;;10333804;23;20443;-79
2023/01/10 09:43:07;;;;;;;3.13;1.17;;;4.20;99.90;;;;;;10333908;23;20476;-78
2023/01/10 09:47:32;;;;;;;2.63;0.93;;;4.20;99.90;;;;;;10332997;22;20498;-79
2023/01/10 09:51:40;;;;;;;4.75;1.20;;;4.30;99.90;;;;;;10333354;23;20012;-79
2023/01/10 09:55:41;;;;;;;2.90;1.00;;;4.40;99.90;;;;;;10333286;22;20012;-78
2023/01/10 09:59:44;;;;;;;6.13;1.67;;;4.70;99.90;;;;;;10334237;23;20004;-80
2023/01/10 10:03:54;;;;;;;4.00;1.30;;;5.00;99.90;;;;;;10333659;22;20019;-80
2023/01/10 10:07:57;;;;;;;7.45;1.60;;;5.30;99.90;;;;;;10332355;23;20079;-79
2023/01/10 10:12:08;;;;;;;2.15;1.10;;;5.50;99.90;;;;;;10335221;22;20000;-78
2023/01/10 10:16:30;;;;;;;3.78;1.20;;;5.40;99.90;;;;;;10333227;22;20493;-80
2023/01/10 10:20:37;;;;;;;3.10;1.30;;;5.80;99.90;;;;;;10334216;23;20004;-79
2023/01/10 10:24:53;;;;;;;0.60;0.50;;;6.00;99.90;;;;;;10334158;22;20435;-78
2023/01/10 10:29:22;;;;;;;2.67;0.75;;;6.00;99.90;;;;;;10335731;23;20008;-79
2023/01/10 10:33:46;;;;;;;3.65;0.52;;;5.80;99.90;;;;;;10336412;23;20012;-80
2023/01/10 10:37:50;;;;;;;1.45;0.57;;;5.70;99.90;;;;;;10336616;23;20031;-79
2023/01/10 10:41:52;;;;;;;1.17;0.88;;;5.60;99.90;;;;;;10336683;23;20050;-80
2023/01/10 10:46:07;;;;;;;1.67;0.80;;;5.40;99.90;;;;;;10337151;22;20506;-78
2023/01/10 10:50:13;;;;;;;5.20;1.23;;;5.70;99.90;;;;;;10338101;22;20059;-79
2023/01/10 10:54:15;;;;;;;2.13;0.90;;;6.20;99.90;;;;;;10337036;22;20339;-79
2023/01/10 10:58:17;;;;;;;1.92;0.70;;;6.60;99.90;;;;;;10336175;23;20386;-79
2023/01/10 11:02:27;;;;;;;4.53;1.23;;;6.90;99.90;;;;;;10336668;23;20004;-79
2023/01/10 11:06:29;;;;;;;3.58;1.20;;;7.10;99.90;;;;;;10336082;22;20012;-79
2023/01/10 11:10:34;;;;;;;2.78;0.93;;;7.60;99.90;;;;;;10337781;22;20075;-79
2023/01/10 11:14:43;;;;;;;2.47;0.88;;;7.60;99.90;;;;;;10337617;22;20062;-79
2023/01/10 11:18:43;;;;;;;1.73;0.80;;;7.80;99.90;;;;;;10338543;22;20000;-79
2023/01/10 11:22:49;;;;;;;1.55;0.77;;;7.20;99.90;;;;;;10336058;23;20004;-79
2023/01/10 11:26:51;;;;;;;3.05;0.93;;;7.00;99.90;;;;;;10336996;22;20033;-77
2023/01/10 11:30:52;;;;;;;3.80;0.80;;;7.00;99.90;;;;;;10336303;23;20091;-80
2023/01/10 11:34:57;;;;;;;3.60;0.88;;;6.90;99.90;;;;;;10335245;22;20001;-79
2023/01/10 11:39:01;;;;;;;2.03;0.65;;;7.00;99.90;;;;;;10335557;23;20001;-79
2023/01/10 11:43:29;;;;;;;6.22;1.10;;;7.20;99.90;;;;;;10337437;22;20020;-79
2023/01/10 11:47:32;;;;;;;4.35;1.08;;;6.90;99.90;;;;;;10336329;22;19996;-80
2023/01/10 11:51:36;;;;;;;2.00;0.50;;;6.60;99.90;;;;;;10333915;23;20082;-78
2023/01/10 11:55:37;;;;;;;3.65;0.93;;;6.40;99.90;;;;;;10333659;22;20019;-80
2023/01/10 11:59:38;;;;;;;3.17;0.90;;;6.40;99.90;;;;;;10336118;23;20099;-79
2023/01/10 12:03:39;;;;;;;1.92;1.02;;;6.70;99.90;;;;;;10335037;23;20015;-78
2023/01/10 12:08:05;;;;;;;1.83;1.05;;;6.80;99.90;;;;;;10337121;22;20011;-79
2023/01/10 12:12:23;;;;;;;5.18;2.30;;;6.80;99.90;;;;;;10336813;23;20012;-79
2023/01/10 12:16:23;;;;;;;8.27;3.20;;;7.00;99.90;;;;;;10335919;22;20016;-79
2023/01/10 12:20:27;;;;;;;4.32;1.77;;;7.00;99.90;;;;;;10335858;23;20008;-78
2023/01/10 12:24:35;;;;;;;7.38;1.08;;;7.30;99.90;;;;;;10335766;22;20008;-79
2023/01/10 12:28:36;;;;;;;6.63;1.02;;;8.00;99.90;;;;;;10335888;23;20095;-78
2023/01/10 12:32:48;;;;;;;6.03;1.45;;;7.50;99.90;;;;;;10337134;22;20000;-78
2023/01/10 12:37:03;;;;;;;5.32;1.30;;;7.30;99.90;;;;;;10334218;22;20092;-79
2023/01/10 12:41:08;;;;;;;3.53;1.00;;;6.90;99.90;;;;;;10335438;23;20083;-79
2023/01/10 12:45:18;;;;;;;4.28;1.40;;;6.70;99.90;;;;;;10333903;22;20495;-79
2023/01/10 12:49:30;;;;;;;10.07;3.20;;;6.50;99.90;;;;;;10336312;23;20070;-79
2023/01/10 12:53:34;;;;;;;6.65;2.35;;;6.40;99.90;;;;;;10335312;23;20008;-79
2023/01/10 12:57:39;;;;;;;2.55;1.10;;;6.50;99.90;;;;;;10337073;22;20004;-80
2023/01/10 13:01:42;;;;;;;4.88;1.40;;;6.50;99.90;;;;;;10337642;22;20050;-79
2023/01/10 13:05:47;;;;;;;2.05;0.68;;;6.70;99.90;;;;;;10335339;22;20008;-80
2023/01/10 13:09:48;;;;;;;1.58;0.75;;;6.90;99.90;;;;;;10335805;23;20446;-79
2023/01/10 13:13:55;;;;;;;0.57;0.50;;;6.80;99.90;;;;;;10334409;22;20091;-79
2023/01/10 13:18:03;;;;;;;4.00;1.00;;;6.80;99.90;;;;;;10332407;23;20019;-79
2023/01/10 13:22:21;;;;;;;2.17;0.93;;;6.80;99.90;;;;;;10332389;23;20091;-79
2023/01/10 13:26:23;;;;;;;2.38;1.05;;;6.40;99.90;;;;;;10331340;22;20018;-78
2023/01/10 13:30:41;;;;;;;5.35;2.38;;;6.40;99.90;;;;;;10333656;23;20053;-79
2023/01/10 13:34:42;;;;;;;7.63;1.90;;;6.60;99.90;;;;;;10332931;22;20000;-79
2023/01/10 13:38:53;;;;;;;11.48;4.25;;;6.40;99.90;;;;;;10332273;23;20023;-78
2023/01/10 13:43:33;;;;;;;5.28;2.10;;;6.30;99.90;;;;;;10331012;23;20411;-80
2023/01/10 13:47:39;;;;;;;4.38;2.17;;;6.00;99.90;;;;;;10332634;22;20007;-80
2023/01/10 13:52:19;;;;;;;3.10;1.77;;;5.80;99.90;;;;;;10332741;23;20446;-78
2023/01/10 13:56:30;;;;;;;6.72;2.55;;;5.70;99.90;;;;;;10329982;22;20012;-79
2023/01/10 14:04:55;;;;;;;3.65;2.05;;;5.80;99.90;;;;;;10331854;22;20094;-78
2023/01/10 14:09:11;;;;;;;4.40;1.35;;;5.90;99.90;;;;;;10330642;23;20395;-79
2023/01/10 14:13:21;;;;;;;3.00;1.10;;;6.10;99.90;;;;;;10330262;23;20008;-79
2023/01/10 14:17:23;;;;;;;;;;;6.20;99.90;;;;;;10287686;22;1037195;-78
2023/01/10 14:21:26;;;;;;;2.45;0.60;;;6.30;99.90;;;;;;10332092;23;19910;-78
2023/01/10 14:25:27;;;;;;;1.05;0.40;;;6.40;99.90;;;;;;10332097;22;20032;-79
2023/01/10 14:29:31;;;;;;;3.20;1.35;;;6.20;99.90;;;;;;10332193;23;20012;-78
2023/01/10 14:33:32;;;;;;;8.38;1.70;;;6.00;99.90;;;;;;10331483;23;20008;-78
2023/01/10 14:37:42;;;;;;;7.60;1.60;;;5.80;99.90;;;;;;10332027;22;20088;-79
2023/01/10 14:41:45;;;;;;;1.73;0.75;;;5.80;99.90;;;;;;10332580;23;20004;-80
2023/01/10 14:45:53;;;;;;;3.70;1.30;;;5.60;99.90;;;;;;10331654;22;20008;-78
2023/01/10 14:50:03;;;;;;;5.32;0.85;;;5.70;99.90;;;;;;10332565;23;20004;-78
2023/01/10 14:54:11;;;;;;;2.10;0.60;;;5.60;99.90;;;;;;10331395;22;20066;-79
2023/01/10 14:58:16;;;;;;;3.55;0.95;;;5.60;99.90;;;;;;10331841;23;20350;-78
2023/01/10 15:02:24;;;;;;;5.07;0.75;;;5.60;99.90;;;;;;10331880;23;20058;-78
2023/01/10 15:06:24;;;;;;;3.47;0.70;;;5.40;99.90;;;;;;10331349;22;20012;-78
2023/01/10 15:10:37;;;;;;;10.95;1.00;;;5.10;99.90;;;;;;10333477;23;20469;-79
2023/01/10 15:14:37;;;;;;;4.15;1.10;;;4.80;99.90;;;;;;10333419;22;20009;-78
2023/01/10 15:18:42;;;;;;;4.43;1.30;;;4.70;99.90;;;;;;10335001;23;20114;-78
2023/01/10 15:22:49;;;;;;;3.83;0.88;;;4.50;99.90;;;;;;10336368;23;20000;-79
2023/01/10 15:26:52;;;;;;;6.32;1.08;;;4.30;99.90;;;;;;10334775;22;20073;-79
2023/01/10 15:30:54;;;;;;;1.13;0.50;;;4.20;99.90;;;;;;10331806;23;20016;-79
2023/01/10 15:34:56;;;;;;;3.78;1.17;;;4.00;99.90;;;;;;10334908;22;20094;-79
2023/01/10 15:38:57;;;;;;;4.43;2.08;;;3.70;99.90;;;;;;10336540;22;19997;-78
2023/01/10 15:43:20;;;;;;;5.38;2.53;;;3.70;99.90;;;;;;10334840;23;20542;-79
2023/01/10 15:47:47;;;;;;;4.20;0.80;;;3.50;99.90;;;;;;10335095;22;20383;-78
2023/01/10 15:51:47;;;;;;;2.47;0.60;;;3.30;99.90;;;;;;10317521;23;20059;-78
2023/01/10 15:55:52;;;;;;;1.00;0.50;;;2.90;99.90;;;;;;10335618;22;20000;-78
2023/01/10 15:59:53;;;;;;;8.93;3.97;;;2.50;99.90;;;;;;10334485;23;20004;-78
2023/01/10 16:03:56;;;;;;;37.08;14.88;;;2.20;99.90;;;;;;10335827;22;20561;-79
2023/01/10 16:07:57;;;;;;;12.55;5.05;;;2.20;99.90;;;;;;10335094;23;20004;-80
2023/01/10 16:16:19;;;;;;;43.75;16.67;;;2.00;99.90;;;;;;10337177;22;20043;-80
2023/01/10 16:20:25;;;;;;;59.05;24.25;;;1.80;99.90;;;;;;10335546;23;20008;-79
2023/01/10 16:24:32;;;;;;;13.63;5.95;;;1.70;99.90;;;;;;10335390;22;20004;-79
2023/01/10 16:28:35;;;;;;;11.88;6.07;;;1.70;99.90;;;;;;10334396;23;20012;-79
2023/01/10 16:32:35;;;;;;;29.65;11.85;;;1.90;99.90;;;;;;10336123;23;20091;-78
2023/01/10 16:36:36;;;;;;;18.58;5.32;;;1.90;99.90;;;;;;10335452;22;20000;-78
2023/01/10 16:40:40;;;;;;;22.00;6.38;;;2.10;99.90;;;;;;10335222;23;20112;-77
2023/01/10 16:44:40;;;;;;;8.13;3.05;;;2.10;99.90;;;;;;10334634;22;20012;-79
2023/01/10 16:48:41;;;;;;;15.20;9.15;;;2.10;99.90;;;;;;10336185;23;20023;-78
2023/01/10 16:52:41;;;;;;;7.55;4.63;;;2.00;99.90;;;;;;10335666;23;20012;-79
2023/01/10 16:56:44;;;;;;;31.45;12.98;;;1.90;99.90;;;;;;10338135;22;20442;-79
2023/01/10 17:00:47;;;;;;;20.65;10.48;;;1.90;99.90;;;;;;10335046;23;20012;-79
2023/01/10 17:04:47;;;;;;;26.50;11.48;;;1.80;99.90;;;;;;10334241;22;20011;-78
2023/01/10 17:08:50;;;;;;;20.33;8.68;;;1.70;99.90;;;;;;10334709;23;20075;-78
2023/01/10 17:12:52;;;;;;;22.98;10.63;;;1.70;99.90;;;;;;10332996;23;20001;-78
2023/01/10 17:16:52;;;;;;;23.30;10.05;;;1.70;99.90;;;;;;10333865;22;20016;-77
2023/01/10 17:20:57;;;;;;;27.13;11.15;;;1.60;99.90;;;;;;10335091;23;20015;-79
2023/01/10 17:24:57;;;;;;;34.78;16.02;;;1.30;99.90;;;;;;10342032;22;20004;-79
2023/01/10 17:28:58;;;;;;;62.40;21.25;;;1.30;99.90;;;;;;10342251;23;20007;-79
2023/01/10 17:32:58;;;;;;;12.32;4.93;;;1.10;99.90;;;;;;10339710;23;20012;-79
2023/01/10 17:36:59;;;;;;;17.73;5.65;;;1.00;99.90;;;;;;10340006;22;20034;-79
2023/01/10 17:41:02;;;;;;;16.20;7.82;;;0.70;99.90;;;;;;10340485;23;20010;-79
2023/01/10 17:45:03;;;;;;;12.02;6.25;;;0.50;99.90;;;;;;10343406;22;20079;-79
2023/01/10 17:49:03;;;;;;;12.35;3.90;;;0.50;99.90;;;;;;10343816;22;20000;-79
2023/01/10 17:53:04;;;;;;;7.93;2.15;;;0.40;99.90;;;;;;10340961;23;20091;-79
2023/01/10 17:57:05;;;;;;;4.53;2.00;;;0.30;99.90;;;;;;10342380;22;20019;-79
2023/01/10 18:01:06;;;;;;;9.30;3.25;;;0.00;99.90;;;;;;10344381;23;20312;-79
2023/01/10 18:05:07;;;;;;;6.35;3.17;;;-0.20;99.90;;;;;;10343044;22;20043;-79
2023/01/10 18:09:07;;;;;;;8.63;4.50;;;-0.30;99.90;;;;;;10340718;23;20004;-78
2023/01/10 18:13:12;;;;;;;11.93;5.40;;;-0.20;99.90;;;;;;10342743;23;20015;-79
2023/01/10 18:17:13;;;;;;;16.30;6.65;;;-0.10;99.90;;;;;;10344594;22;20012;-80
2023/01/10 18:21:16;;;;;;;10.23;5.18;;;-0.30;99.90;;;;;;10344141;23;20007;-79
2023/01/10 18:25:17;;;;;;;24.15;9.60;;;-0.40;99.90;;;;;;10345814;22;19996;-80
2023/01/10 18:29:17;;;;;;;23.80;10.65;;;-0.60;99.90;;;;;;10346504;23;20126;-80
2023/01/10 18:33:18;;;;;;;10.93;5.60;;;-0.90;99.90;;;;;;10347603;23;20040;-79
2023/01/10 18:37:19;;;;;;;7.18;3.63;;;-0.80;99.90;;;;;;10349401;22;20024;-80
2023/01/10 18:41:20;;;;;;;7.05;3.20;;;-0.40;99.90;;;;;;10350252;23;19996;-80
2023/01/10 18:45:21;;;;;;;4.63;3.05;;;-0.30;99.90;;;;;;10350099;22;20036;-80
2023/01/10 18:49:21;;;;;;;8.30;4.18;;;-0.10;99.90;;;;;;10353672;23;20004;-80
2023/01/10 18:53:22;;;;;;;7.72;3.05;;;-0.20;99.90;;;;;;10378746;22;19992;-78
2023/01/10 18:57:23;;;;;;;10.25;4.07;;;-0.40;99.90;;;;;;10342342;22;20051;-81
2023/01/10 19:01:24;;;;;;;7.63;4.30;;;0.00;99.90;;;;;;10342606;23;20012;-78
2023/01/10 19:05:24;;;;;;;6.35;2.97;;;0.10;99.90;;;;;;10342501;22;20008;-79
2023/01/10 19:09:25;;;;;;;5.82;2.80;;;0.10;99.90;;;;;;10342878;23;20042;-80
2023/01/10 19:13:25;;;;;;;7.28;3.10;;;-0.10;99.90;;;;;;10339128;23;20595;-79
2023/01/10 19:17:28;;;;;;;3.92;2.58;;;-0.20;99.90;;;;;;10339395;22;20520;-78
2023/01/10 19:21:30;;;;;;;7.05;3.00;;;-0.30;99.90;;;;;;10339480;23;20008;-79
2023/01/10 19:25:32;;;;;;;4.88;2.50;;;-0.20;99.90;;;;;;10336650;22;20050;-79
2023/01/10 19:29:34;;;;;;;5.80;3.17;;;0.30;99.90;;;;;;10338961;23;20083;-78
2023/01/10 19:33:36;;;;;;;8.02;2.97;;;0.40;99.90;;;;;;10337081;23;20004;-79
2023/01/10 19:37:36;;;;;;;9.98;2.80;;;0.70;99.90;;;;;;10338146;22;20047;-78
2023/01/10 19:41:38;;;;;;;7.60;3.13;;;1.00;99.90;;;;;;10337338;23;20007;-79
2023/01/10 19:45:41;;;;;;;8.60;3.70;;;1.10;99.90;;;;;;10336540;22;20027;-80
2023/01/10 19:49:42;;;;;;;8.73;3.78;;;1.20;99.90;;;;;;10336954;23;20004;-80
2023/01/10 19:53:45;;;;;;;7.22;3.90;;;1.00;99.90;;;;;;10337887;23;20004;-78
2023/01/10 19:57:45;;;;;;;8.20;4.18;;;0.90;99.90;;;;;;10338057;22;20004;-79
2023/01/10 20:01:46;;;;;;;8.35;4.07;;;0.90;99.90;;;;;;10337785;23;20004;-80
2023/01/10 20:05:47;;;;;;;7.90;4.25;;;1.00;99.90;;;;;;10335345;22;20139;-78
2023/01/10 20:09:48;;;;;;;6.85;3.67;;;1.20;99.90;;;;;;10335678;23;20008;-80
2023/01/10 20:13:49;;;;;;;6.75;3.03;;;1.20;99.90;;;;;;10335636;22;20012;-77
2023/01/10 20:17:49;;;;;;;3.22;1.92;;;1.20;99.90;;;;;;10382363;22;20512;-83
2023/01/10 20:21:50;;;;;;;2.88;1.52;;;1.30;99.90;;;;;;10368826;22;20004;-84
2023/01/10 20:25:56;;;;;;;4.47;2.00;;;1.60;99.90;;;;;;10343074;23;20079;-85
2023/01/10 20:29:57;;;;;;;3.55;1.40;;;1.80;99.90;;;;;;10339981;22;20004;-85
2023/01/10 20:33:58;;;;;;;2.95;1.45;;;2.10;99.90;;;;;;10337480;23;20038;-85
2023/01/10 20:37:58;;;;;;;2.75;1.60;;;2.10;99.90;;;;;;10336965;23;20000;-85
2023/01/10 20:41:59;;;;;;;5.22;1.42;;;2.50;99.90;;;;;;10337894;22;20007;-85
2023/01/10 20:46:12;;;;;;;6.95;1.98;;;2.60;99.90;;;;;;10335021;23;20346;-85
2023/01/10 20:50:13;;;;;;;3.58;1.42;;;2.50;99.90;;;;;;10334239;22;20008;-85
2023/01/10 20:54:13;;;;;;;3.80;1.40;;;2.50;99.90;;;;;;10334703;23;20050;-85
2023/01/10 20:58:14;;;;;;;1.60;1.02;;;2.40;99.90;;;;;;10335308;23;20014;-85
2023/01/10 21:03:05;;;;;;;1.25;0.80;;;2.70;99.90;;;;;;10337974;22;20430;-83
2023/01/10 21:07:05;;;;;;;2.30;0.80;;;2.40;99.90;;;;;;10329424;23;20304;-84
2023/01/10 21:11:07;;;;;;;1.92;0.90;;;2.50;99.90;;;;;;10336350;22;20005;-84
2023/01/10 21:15:08;;;;;;;1.08;0.40;;;3.30;99.90;;;;;;10335540;23;20541;-83
2023/01/10 21:19:12;;;;;;;3.83;0.63;;;3.20;99.90;;;;;;10337512;23;20629;-83
2023/01/10 21:23:13;;;;;;;1.00;0.60;;;3.60;99.90;;;;;;10336245;22;20012;-84